Time,TemperatureF,DewpointF,PressureIn,WindDirection,WindDirectionDegrees,WindSpeedMPH,WindSpeedGustMPH,Humidity,HourlyPrecipIn,Conditions,Clouds,dailyrainin,SolarRadiationWatts/m^2,SoftwareType,DateUTC
2013-07-07 00:01:00,81.0,33.0,-100.00,SSW,205,8.0,17.0,18,0.00,,,0.00,0.000000,,2013-07-07 07:01:00,
2013-07-07 00:11:00,81.0,33.0,-100.00,SSW,205,8.0,17.0,18,0.00,,,0.00,0.000000,,2013-07-07 07:11:00,
2013-07-07 00:44:00,78.0,32.0,-100.00,South,187,5.0,9.0,19,0.00,,,0.00,0.000000,,2013-07-07 07:44:00,
2013-07-07 00:53:00,78.0,32.0,-100.00,South,187,5.0,9.0,19,0.00,,,0.00,0.000000,,2013-07-07 07:53:00,
2013-07-07 01:02:00,78.0,32.0,-100.00,South,187,5.0,9.0,19,0.00,,,0.00,0.000000,,2013-07-07 08:02:00,
2013-07-07 01:12:00,78.0,32.0,-100.00,South,187,5.0,9.0,19,0.00,,,0.00,0.000000,,2013-07-07 08:12:00,
2013-07-07 01:44:00,76.0,34.0,-100.00,SSE,148,5.0,6.0,22,0.00,,,0.00,0.000000,,2013-07-07 08:44:00,
2013-07-07 01:53:00,76.0,34.0,-100.00,SSE,148,5.0,6.0,22,0.00,,,0.00,0.000000,,2013-07-07 08:53:00,
2013-07-07 02:02:00,76.0,34.0,-100.00,SSE,148,5.0,6.0,22,0.00,,,0.00,0.000000,,2013-07-07 09:02:00,
2013-07-07 02:12:00,76.0,34.0,-100.00,SSE,148,5.0,6.0,22,0.00,,,0.00,0.000000,,2013-07-07 09:12:00,
2013-07-07 02:43:00,73.0,36.0,-100.00,SSE,148,3.0,7.0,26,0.00,,,0.00,0.000000,,2013-07-07 09:43:00,
2013-07-07 02:53:00,73.0,36.0,-100.00,SSE,148,3.0,7.0,26,0.00,,,0.00,0.000000,,2013-07-07 09:53:00,
2013-07-07 03:03:00,73.0,36.0,-100.00,SSE,148,3.0,7.0,26,0.00,,,0.00,0.000000,,2013-07-07 10:03:00,
2013-07-07 03:12:00,73.0,36.0,-100.00,SSE,148,3.0,7.0,26,0.00,,,0.00,0.000000,,2013-07-07 10:12:00,
2013-07-07 03:43:00,72.0,34.0,-100.00,SE,146,2.0,7.0,25,0.00,,,0.00,0.000000,,2013-07-07 10:43:00,
2013-07-07 03:52:00,72.0,34.0,-100.00,SE,146,2.0,7.0,25,0.00,,,0.00,0.000000,,2013-07-07 10:52:00,
2013-07-07 04:02:00,72.0,34.0,-100.00,SE,146,2.0,7.0,25,0.00,,,0.00,0.000000,,2013-07-07 11:02:00,
2013-07-07 04:11:00,72.0,34.0,-100.00,SE,146,2.0,7.0,25,0.00,,,0.00,0.000000,,2013-07-07 11:11:00,
2013-07-07 04:43:00,70.0,35.0,-100.00,SE,140,2.0,5.0,28,0.00,,,0.00,0.000000,,2013-07-07 11:43:00,
2013-07-07 04:53:00,70.0,35.0,-100.00,SE,140,2.0,5.0,28,0.00,,,0.00,0.000000,,2013-07-07 11:53:00,
2013-07-07 05:43:00,70.0,36.0,-100.00,SSE,154,4.0,7.0,29,0.00,,,0.00,0.000000,,2013-07-07 12:43:00,
2013-07-07 05:52:00,70.0,36.0,-100.00,SSE,154,4.0,7.0,29,0.00,,,0.00,0.000000,,2013-07-07 12:52:00,
2013-07-07 06:02:00,70.0,36.0,-100.00,SSE,154,4.0,7.0,29,0.00,,,0.00,0.000000,,2013-07-07 13:02:00,
2013-07-07 06:11:00,70.0,36.0,-100.00,SSE,154,4.0,7.0,29,0.00,,,0.00,0.000000,,2013-07-07 13:11:00,
2013-07-07 06:43:00,69.0,36.0,-100.00,SSE,150,3.0,8.0,30,0.00,,,0.00,6.000000,,2013-07-07 13:43:00,
2013-07-07 06:52:00,69.0,36.0,-100.00,SSE,150,3.0,8.0,30,0.00,,,0.00,6.000000,,2013-07-07 13:52:00,
2013-07-07 07:02:00,69.0,36.0,-100.00,SSE,150,3.0,8.0,30,0.00,,,0.00,6.000000,,2013-07-07 14:02:00,
2013-07-07 07:12:00,69.0,36.0,-100.00,SSE,150,3.0,8.0,30,0.00,,,0.00,6.000000,,2013-07-07 14:12:00,
2013-07-07 07:43:00,75.0,41.0,-100.00,SSE,165,3.0,7.0,29,0.00,,,0.00,107.000000,,2013-07-07 14:43:00,
2013-07-07 07:53:00,75.0,41.0,-100.00,SSE,165,3.0,7.0,29,0.00,,,0.00,107.000000,,2013-07-07 14:53:00,
2013-07-07 08:02:00,75.0,41.0,-100.00,SSE,165,3.0,7.0,29,0.00,,,0.00,107.000000,,2013-07-07 15:02:00,
2013-07-07 08:11:00,75.0,41.0,-100.00,SSE,165,3.0,7.0,29,0.00,,,0.00,107.000000,,2013-07-07 15:11:00,
2013-07-07 08:43:00,80.0,39.0,-100.00,NNE,33,1.0,6.0,23,0.00,,,0.00,352.000000,,2013-07-07 15:43:00,
2013-07-07 08:52:00,80.0,39.0,-100.00,NNE,33,1.0,6.0,23,0.00,,,0.00,352.000000,,2013-07-07 15:52:00,
2013-07-07 09:01:00,80.0,39.0,-100.00,NNE,33,1.0,6.0,23,0.00,,,0.00,352.000000,,2013-07-07 16:01:00,
2013-07-07 09:11:00,80.0,39.0,-100.00,NNE,33,1.0,6.0,23,0.00,,,0.00,352.000000,,2013-07-07 16:11:00,
2013-07-07 09:43:00,84.0,41.0,-100.00,NNW,334,2.0,6.0,22,0.00,,,0.00,551.000000,,2013-07-07 16:43:00,
2013-07-07 09:53:00,84.0,41.0,-100.00,NNW,334,2.0,6.0,22,0.00,,,0.00,551.000000,,2013-07-07 16:53:00,
2013-07-07 10:02:00,84.0,41.0,-100.00,NNW,334,2.0,6.0,22,0.00,,,0.00,551.000000,,2013-07-07 17:02:00,
2013-07-07 10:12:00,84.0,41.0,-100.00,NNW,334,2.0,6.0,22,0.00,,,0.00,551.000000,,2013-07-07 17:12:00,
2013-07-07 10:43:00,89.0,40.0,-100.00,NW,312,2.0,7.0,18,0.00,,,0.00,733.000000,,2013-07-07 17:43:00,
2013-07-07 10:53:00,89.0,40.0,-100.00,NW,312,2.0,7.0,18,0.00,,,0.00,733.000000,,2013-07-07 17:53:00,
2013-07-07 11:43:00,94.0,34.0,-100.00,West,274,3.0,19.0,12,0.00,,,0.00,869.000000,,2013-07-07 18:43:00,
2013-07-07 11:53:00,94.0,34.0,-100.00,West,274,3.0,19.0,12,0.00,,,0.00,869.000000,,2013-07-07 18:53:00,
2013-07-07 12:01:00,94.0,34.0,-100.00,West,274,3.0,19.0,12,0.00,,,0.00,869.000000,,2013-07-07 19:01:00,
2013-07-07 12:11:00,94.0,34.0,-100.00,West,274,3.0,19.0,12,0.00,,,0.00,869.000000,,2013-07-07 19:11:00,
2013-07-07 12:43:00,97.0,26.0,-100.00,SSE,158,4.0,20.0,8,0.00,,,0.00,958.000000,,2013-07-07 19:43:00,
2013-07-07 12:54:00,97.0,26.0,-100.00,SSE,158,4.0,20.0,8,0.00,,,0.00,958.000000,,2013-07-07 19:54:00,
2013-07-07 13:02:00,97.0,26.0,-100.00,SSE,158,4.0,20.0,8,0.00,,,0.00,958.000000,,2013-07-07 20:02:00,
2013-07-07 13:11:00,97.0,26.0,-100.00,SSE,158,4.0,20.0,8,0.00,,,0.00,958.000000,,2013-07-07 20:11:00,
2013-07-07 13:42:00,98.0,30.0,-100.00,WSW,258,8.0,25.0,9,0.00,,,0.00,994.000000,,2013-07-07 20:42:00,
2013-07-07 13:53:00,98.0,30.0,-100.00,WSW,258,8.0,25.0,9,0.00,,,0.00,994.000000,,2013-07-07 20:53:00,
2013-07-07 14:02:00,98.0,30.0,-100.00,WSW,258,8.0,25.0,9,0.00,,,0.00,994.000000,,2013-07-07 21:02:00,
2013-07-07 14:11:00,98.0,30.0,-100.00,WSW,258,8.0,25.0,9,0.00,,,0.00,994.000000,,2013-07-07 21:11:00,
2013-07-07 14:44:00,101.0,26.0,-100.00,WSW,246,5.0,21.0,7,0.00,,,0.00,984.000000,,2013-07-07 21:44:00,
2013-07-07 14:53:00,101.0,26.0,-100.00,WSW,246,5.0,21.0,7,0.00,,,0.00,984.000000,,2013-07-07 21:53:00,
2013-07-07 15:01:00,101.0,26.0,-100.00,WSW,246,5.0,21.0,7,0.00,,,0.00,984.000000,,2013-07-07 22:01:00,
2013-07-07 15:11:00,101.0,26.0,-100.00,WSW,246,5.0,21.0,7,0.00,,,0.00,984.000000,,2013-07-07 22:11:00,
2013-07-07 15:44:00,102.0,30.0,-100.00,WNW,287,7.0,27.0,8,-99.99,,,0.00,914.000000,,2013-07-07 22:44:00,
2013-07-07 15:53:00,102.0,30.0,-100.00,WNW,287,7.0,27.0,8,-99.99,,,0.00,914.000000,,2013-07-07 22:53:00,
2013-07-07 16:01:00,102.0,30.0,-100.00,WNW,287,7.0,27.0,8,-99.99,,,0.00,914.000000,,2013-07-07 23:01:00,
2013-07-07 16:11:00,102.0,30.0,-100.00,WNW,287,7.0,27.0,8,-99.99,,,0.00,914.000000,,2013-07-07 23:11:00,
2013-07-07 16:43:00,99.0,27.0,-100.00,NNW,328,5.0,20.0,8,-99.99,,,0.00,785.000000,,2013-07-07 23:43:00,
2013-07-07 16:53:00,99.0,27.0,-100.00,NNW,328,5.0,20.0,8,-99.99,,,0.00,785.000000,,2013-07-07 23:53:00,
2013-07-07 17:01:00,99.0,27.0,-100.00,NNW,328,5.0,20.0,8,-99.99,,,0.00,785.000000,,2013-07-08 00:01:00,
2013-07-07 17:11:00,99.0,27.0,-100.00,NNW,328,5.0,20.0,8,-99.99,,,0.00,785.000000,,2013-07-08 00:11:00,
2013-07-07 17:43:00,98.0,30.0,-100.00,NNW,339,8.0,23.0,9,0.00,,,-99.99,615.000000,,2013-07-08 00:43:00,
2013-07-07 17:53:00,98.0,30.0,-100.00,NNW,339,8.0,23.0,9,0.00,,,-99.99,615.000000,,2013-07-08 00:53:00,
2013-07-07 18:01:00,98.0,30.0,-100.00,NNW,339,8.0,23.0,9,0.00,,,-99.99,615.000000,,2013-07-08 01:01:00,
2013-07-07 18:11:00,98.0,30.0,-100.00,NNW,339,8.0,23.0,9,0.00,,,-99.99,615.000000,,2013-07-08 01:11:00,
2013-07-07 18:43:00,96.0,28.0,-100.00,NNW,331,7.0,21.0,9,0.00,,,0.00,420.000000,,2013-07-08 01:43:00,
2013-07-07 18:53:00,96.0,28.0,-100.00,NNW,331,7.0,21.0,9,0.00,,,0.00,420.000000,,2013-07-08 01:53:00,
2013-07-07 19:02:00,96.0,28.0,-100.00,NNW,331,7.0,21.0,9,0.00,,,0.00,420.000000,,2013-07-08 02:02:00,
2013-07-07 19:11:00,96.0,28.0,-100.00,NNW,331,7.0,21.0,9,0.00,,,0.00,420.000000,,2013-07-08 02:11:00,
2013-07-07 19:43:00,92.0,28.0,-100.00,South,180,8.0,22.0,10,0.00,,,0.00,202.000000,,2013-07-08 02:43:00,
2013-07-07 19:52:00,92.0,28.0,-100.00,South,180,8.0,22.0,10,0.00,,,0.00,202.000000,,2013-07-08 02:52:00,
2013-07-07 20:01:00,92.0,28.0,-100.00,South,180,8.0,22.0,10,0.00,,,0.00,202.000000,,2013-07-08 03:01:00,
2013-07-07 20:11:00,92.0,28.0,-100.00,South,180,8.0,22.0,10,0.00,,,0.00,202.000000,,2013-07-08 03:11:00,
2013-07-07 20:42:00,87.0,30.0,-100.00,East,87,3.0,15.0,13,0.00,,,0.00,15.000000,,2013-07-08 03:42:00,
2013-07-07 20:52:00,87.0,30.0,-100.00,East,87,3.0,15.0,13,0.00,,,0.00,15.000000,,2013-07-08 03:52:00,
2013-07-07 21:01:00,87.0,30.0,-100.00,East,87,3.0,15.0,13,0.00,,,0.00,15.000000,,2013-07-08 04:01:00,
2013-07-07 21:11:00,87.0,30.0,-100.00,East,87,3.0,15.0,13,0.00,,,0.00,15.000000,,2013-07-08 04:11:00,
2013-07-07 21:42:00,85.0,30.0,-100.00,WNW,303,2.0,11.0,14,0.00,,,0.00,1.000000,,2013-07-08 04:42:00,
2013-07-07 21:53:00,85.0,30.0,-100.00,WNW,303,2.0,11.0,14,0.00,,,0.00,1.000000,,2013-07-08 04:53:00,
2013-07-07 22:01:00,85.0,30.0,-100.00,WNW,303,2.0,11.0,14,0.00,,,0.00,1.000000,,2013-07-08 05:01:00,
2013-07-07 22:11:00,85.0,30.0,-100.00,WNW,303,2.0,11.0,14,0.00,,,0.00,1.000000,,2013-07-08 05:11:00,
2013-07-07 22:43:00,83.0,31.0,-100.00,SSW,210,8.0,14.0,15,0.00,,,0.00,0.000000,,2013-07-08 05:43:00,
2013-07-07 22:53:00,83.0,31.0,-100.00,SSW,210,8.0,14.0,15,0.00,,,0.00,0.000000,,2013-07-08 05:53:00,
2013-07-07 23:01:00,83.0,31.0,-100.00,SSW,210,8.0,14.0,15,0.00,,,0.00,0.000000,,2013-07-08 06:01:00,
2013-07-07 23:11:00,83.0,31.0,-100.00,SSW,210,8.0,14.0,15,0.00,,,0.00,0.000000,,2013-07-08 06:11:00,
2013-07-07 23:43:00,83.0,31.0,-100.00,SSW,204,6.0,14.0,15,0.00,,,0.00,0.000000,,2013-07-08 06:43:00,
2013-07-07 23:53:00,83.0,31.0,-100.00,SSW,204,6.0,14.0,15,0.00,,,0.00,0.000000,,2013-07-08 06:53:00,